Time;durP1;ratioP1;P1;durP2;ratioP2;P2;SDS_P1;SDS_P2;PMS_P1;PMS_P2;Temp;Humidity;BMP_temperature;BMP_pressure;BME280_temperature;BME280_humidity;BME280_pressure;Samples;Min_cycle;Max_cycle;Signal;HPM_P1;HPM_P2
2023/03/23 00:00:47;;;;;;;0.40;0.30;;;17.20;72.10;;;;;;5009545;28;20594;-79
2023/03/23 00:03:12;;;;;;;0.70;0.52;;;17.10;72.00;;;;;;5009028;28;20041;-79
2023/03/23 00:05:40;;;;;;;0.70;0.63;;;17.10;72.00;;;;;;5010434;28;20037;-78
2023/03/23 00:08:08;;;;;;;0.55;0.32;;;17.20;72.00;;;;;;5008038;28;20041;-80
2023/03/23 00:10:35;;;;;;;0.60;0.60;;;17.10;71.60;;;;;;5008373;28;20526;-79
2023/03/23 00:13:02;;;;;;;0.95;0.43;;;17.10;71.90;;;;;;5007354;28;20060;-80
2023/03/23 00:15:30;;;;;;;0.88;0.88;;;17.10;71.90;;;;;;5006338;28;20041;-77
2023/03/23 00:18:02;;;;;;;0.77;0.50;;;17.10;72.00;;;;;;5007526;28;20123;-79
2023/03/23 00:20:29;;;;;;;0.57;0.38;;;17.10;71.90;;;;;;5010027;28;20084;-79
2023/03/23 00:22:59;;;;;;;0.30;0.30;;;17.10;72.00;;;;;;5008282;28;20470;-79
2023/03/23 00:25:25;;;;;;;0.57;0.40;;;17.10;72.00;;;;;;5006255;28;20060;-79
2023/03/23 00:27:50;;;;;;;0.63;0.50;;;17.10;72.00;;;;;;5007676;28;24105;-80
2023/03/23 00:30:17;;;;;;;0.60;0.55;;;17.10;72.00;;;;;;5008771;28;20061;-80
2023/03/23 00:32:43;;;;;;;0.60;0.60;;;17.10;72.30;;;;;;5009018;28;20046;-79
2023/03/23 00:35:08;;;;;;;0.50;0.50;;;17.10;72.20;;;;;;5008851;28;20069;-79
2023/03/23 00:37:35;;;;;;;0.57;0.50;;;17.10;72.20;;;;;;5003874;28;20057;-79
2023/03/23 00:40:05;;;;;;;1.95;0.50;;;17.10;72.30;;;;;;5009951;28;20052;-80
2023/03/23 00:42:36;;;;;;;0.98;0.55;;;17.10;72.10;;;;;;5006313;28;20069;-78
2023/03/23 00:45:02;;;;;;;0.40;0.40;;;17.10;72.30;;;;;;5009075;28;20048;-80
2023/03/23 00:47:28;;;;;;;0.55;0.55;;;17.10;72.30;;;;;;5004417;28;20046;-79
2023/03/23 00:49:55;;;;;;;1.15;0.60;;;17.10;72.40;;;;;;5009610;28;20149;-79
2023/03/23 00:52:21;;;;;;;0.52;0.50;;;17.10;72.30;;;;;;5007584;28;20056;-79
2023/03/23 00:54:47;;;;;;;0.60;0.60;;;17.10;72.30;;;;;;5005768;28;20050;-79
2023/03/23 00:57:12;;;;;;;0.82;0.60;;;17.10;72.30;;;;;;5004044;28;20050;-80
2023/03/23 00:59:38;;;;;;;1.55;0.40;;;17.10;72.30;;;;;;5008601;28;20117;-80
2023/03/23 01:02:03;;;;;;;0.70;0.45;;;17.10;72.30;;;;;;5005796;28;20042;-79
2023/03/23 01:04:31;;;;;;;0.43;0.38;;;17.10;72.30;;;;;;5006302;28;20423;-79
2023/03/23 01:06:56;;;;;;;0.60;0.60;;;17.00;72.30;;;;;;5005417;28;20076;-80
2023/03/23 01:09:22;;;;;;;0.70;0.50;;;17.10;72.30;;;;;;5008027;28;20073;-79
2023/03/23 01:11:49;;;;;;;1.00;0.47;;;17.10;72.30;;;;;;5007271;28;20042;-79
2023/03/23 01:14:15;;;;;;;0.65;0.47;;;17.10;72.30;;;;;;5008307;28;20046;-79
2023/03/23 01:16:41;;;;;;;0.50;0.50;;;17.10;72.30;;;;;;5008906;28;20036;-79
2023/03/23 01:19:06;;;;;;;0.85;0.52;;;17.10;72.00;;;;;;5007467;28;20049;-79
2023/03/23 01:21:32;;;;;;;0.40;0.40;;;17.10;72.10;;;;;;5003090;28;20042;-78
2023/03/23 01:23:58;;;;;;;0.40;0.35;;;17.10;72.00;;;;;;5006864;28;20046;-79
2023/03/23 01:26:25;;;;;;;0.75;0.60;;;17.10;72.20;;;;;;5009849;28;20141;-79
2023/03/23 01:28:50;;;;;;;0.40;0.30;;;17.10;72.30;;;;;;5005426;28;20046;-79
2023/03/23 01:31:17;;;;;;;0.60;0.60;;;17.00;72.30;;;;;;5008645;28;20141;-79
2023/03/23 01:33:43;;;;;;;0.60;0.50;;;17.10;72.30;;;;;;5005134;28;20034;-79
2023/03/23 01:36:13;;;;;;;0.57;0.38;;;17.10;72.40;;;;;;5004513;28;20045;-79
2023/03/23 01:38:39;;;;;;;0.60;0.40;;;17.00;72.30;;;;;;5016170;28;20550;-78
2023/03/23 01:41:05;;;;;;;0.73;0.70;;;17.00;72.50;;;;;;5007635;28;20069;-79
2023/03/23 01:43:31;;;;;;;0.50;0.45;;;17.00;72.30;;;;;;5008622;28;20045;-78
2023/03/23 01:56:03;;;;;;;0.50;0.30;;;17.00;72.20;;;;;;4998278;28;20041;-80
2023/03/23 01:58:30;;;;;;;0.50;0.50;;;17.00;72.60;;;;;;4984950;28;20030;-79
2023/03/23 02:00:58;;;;;;;0.40;0.40;;;17.00;72.30;;;;;;5006377;28;20092;-79
2023/03/23 02:03:24;;;;;;;0.30;0.30;;;17.00;72.40;;;;;;5007338;28;20088;-79
2023/03/23 02:05:50;;;;;;;0.85;0.60;;;17.00;72.40;;;;;;5004165;28;20033;-79
2023/03/23 02:08:16;;;;;;;0.95;0.40;;;17.00;72.40;;;;;;5005796;28;20030;-79
2023/03/23 02:10:41;;;;;;;0.70;0.45;;;17.00;72.30;;;;;;5009140;28;20427;-79
2023/03/23 02:13:08;;;;;;;0.45;0.45;;;17.00;72.40;;;;;;5007741;28;20029;-79
2023/03/23 02:15:46;;;;;;;0.30;0.30;;;17.00;72.30;;;;;;5005664;28;20064;-79
2023/03/23 02:18:19;;;;;;;0.50;0.50;;;17.00;72.30;;;;;;5006988;28;20077;-79
2023/03/23 02:21:05;;;;;;;0.47;0.35;;;17.00;72.40;;;;;;5006515;28;20108;-79
2023/03/23 02:23:54;;;;;;;0.60;0.57;;;17.00;72.40;;;;;;5005394;28;20041;-79
2023/03/23 02:26:41;;;;;;;0.65;0.50;;;17.00;72.30;;;;;;5016650;28;20029;-79
2023/03/23 02:29:28;;;;;;;1.73;0.60;;;17.00;72.30;;;;;;5003458;28;20061;-79
2023/03/23 02:32:05;;;;;;;1.05;0.40;;;17.00;72.50;;;;;;5001910;28;20060;-79
2023/03/23 02:35:05;;;;;;;0.82;0.70;;;17.00;72.30;;;;;;4994201;28;20053;-79
2023/03/23 02:37:48;;;;;;;0.80;0.45;;;17.00;72.40;;;;;;4998252;28;20038;-79
2023/03/23 02:40:20;;;;;;;0.60;0.38;;;17.00;72.20;;;;;;5003671;28;20042;-79
2023/03/23 02:42:48;;;;;;;0.60;0.60;;;17.00;72.10;;;;;;5003022;28;20042;-79
2023/03/23 02:45:14;;;;;;;0.65;0.50;;;17.00;72.40;;;;;;4985117;28;20097;-79
2023/03/23 02:47:41;;;;;;;1.25;0.70;;;17.00;72.40;;;;;;5000850;28;20454;-79
2023/03/23 02:50:08;;;;;;;0.65;0.50;;;17.00;72.40;;;;;;5003450;28;20042;-79
2023/03/23 02:52:34;;;;;;;0.75;0.40;;;17.00;72.40;;;;;;5002144;28;20038;-78
2023/03/23 02:55:00;;;;;;;1.13;0.55;;;17.00;72.30;;;;;;5001609;28;20054;-79
2023/03/23 02:57:26;;;;;;;0.70;0.50;;;17.00;72.30;;;;;;5003598;28;20052;-80
2023/03/23 02:59:51;;;;;;;0.30;0.30;;;17.00;72.30;;;;;;5002102;28;20520;-79
2023/03/23 03:02:17;;;;;;;0.70;0.50;;;17.00;72.40;;;;;;5001316;28;20065;-79
2023/03/23 03:04:54;;;;;;;0.52;0.47;;;16.90;72.30;;;;;;5000936;28;20495;-79
2023/03/23 03:07:24;;;;;;;0.60;0.32;;;17.00;72.50;;;;;;5005040;28;20123;-79
2023/03/23 03:10:06;;;;;;;0.50;0.40;;;17.00;72.50;;;;;;5002445;28;20042;-79
2023/03/23 03:12:41;;;;;;;0.30;0.30;;;16.90;72.30;;;;;;5022465;28;20046;-80
2023/03/23 03:15:20;;;;;;;0.40;0.40;;;17.00;72.40;;;;;;5004395;28;20183;-80
2023/03/23 03:18:07;;;;;;;0.30;0.30;;;16.90;72.40;;;;;;5006723;28;20034;-79
2023/03/23 03:20:33;;;;;;;0.80;0.50;;;16.90;72.40;;;;;;5007523;28;20099;-79
2023/03/23 03:22:58;;;;;;;0.68;0.32;;;17.00;72.50;;;;;;5008445;28;20062;-79
2023/03/23 03:25:24;;;;;;;0.38;0.38;;;16.90;72.50;;;;;;5006320;28;20049;-79
2023/03/23 03:27:52;;;;;;;0.40;0.40;;;16.90;72.50;;;;;;5006713;28;20129;-79
2023/03/23 03:30:20;;;;;;;0.40;0.30;;;16.90;72.50;;;;;;5008553;28;20056;-79
2023/03/23 03:32:48;;;;;;;0.52;0.40;;;16.90;72.60;;;;;;5008645;28;20057;-78
2023/03/23 03:35:15;;;;;;;0.40;0.40;;;16.90;72.60;;;;;;5004180;28;20033;-80
2023/03/23 03:37:41;;;;;;;0.38;0.38;;;16.90;72.60;;;;;;5010612;28;20045;-80
2023/03/23 03:40:11;;;;;;;0.38;0.38;;;16.90;72.60;;;;;;5007734;28;20053;-80
2023/03/23 03:42:41;;;;;;;0.45;0.20;;;16.90;72.50;;;;;;5007607;28;20030;-79
2023/03/23 03:45:13;;;;;;;0.43;0.43;;;16.90;72.60;;;;;;5008144;28;21737;-80
2023/03/23 03:47:39;;;;;;;0.40;0.40;;;16.90;72.60;;;;;;5005423;28;20043;-79
2023/03/23 03:50:05;;;;;;;1.40;0.60;;;16.90;72.60;;;;;;5001078;28;20034;-80
2023/03/23 03:52:31;;;;;;;0.55;0.55;;;16.90;72.60;;;;;;5008628;28;20057;-80
2023/03/23 03:54:57;;;;;;;0.45;0.40;;;16.90;72.50;;;;;;5008782;28;20115;-79
2023/03/23 03:57:22;;;;;;;0.57;0.50;;;16.90;72.60;;;;;;5008605;28;20041;-79
2023/03/23 03:59:48;;;;;;;0.80;0.80;;;16.90;72.50;;;;;;5007138;28;20041;-79
2023/03/23 04:02:16;;;;;;;0.55;0.43;;;16.90;72.60;;;;;;5019481;28;20113;-80
2023/03/23 04:04:43;;;;;;;0.40;0.40;;;16.90;72.60;;;;;;5006177;28;20418;-80
2023/03/23 04:07:10;;;;;;;0.63;0.40;;;16.90;72.60;;;;;;5007525;28;20033;-80
2023/03/23 04:09:38;;;;;;;0.60;0.60;;;16.90;72.50;;;;;;5007682;28;20046;-79
2023/03/23 04:12:04;;;;;;;0.63;0.63;;;16.90;72.50;;;;;;5008773;28;20042;-79
2023/03/23 04:14:29;;;;;;;0.47;0.47;;;16.90;72.50;;;;;;5008373;28;20078;-80
2023/03/23 04:16:56;;;;;;;0.75;0.50;;;16.90;72.60;;;;;;5008264;28;20057;-80
2023/03/23 04:19:23;;;;;;;0.43;0.40;;;16.90;72.50;;;;;;5011302;28;20049;-80
2023/03/23 04:21:49;;;;;;;0.40;0.40;;;16.90;72.60;;;;;;5005810;28;20474;-80
2023/03/23 04:24:15;;;;;;;0.60;0.32;;;16.90;72.60;;;;;;5005964;28;20049;-80
2023/03/23 04:26:41;;;;;;;0.47;0.30;;;16.90;72.60;;;;;;5019846;28;20085;-79
2023/03/23 04:29:08;;;;;;;0.60;0.47;;;16.90;72.60;;;;;;5005126;28;20037;-80
2023/03/23 04:31:34;;;;;;;0.57;0.43;;;16.90;72.50;;;;;;5008581;28;20046;-80
2023/03/23 04:34:01;;;;;;;0.35;0.20;;;16.90;72.50;;;;;;5007839;28;20060;-79
2023/03/23 04:36:28;;;;;;;0.50;0.50;;;16.90;72.50;;;;;;5005077;28;20038;-80
2023/03/23 04:38:55;;;;;;;0.93;0.50;;;16.90;72.60;;;;;;5006130;28;20666;-80
2023/03/23 04:41:21;;;;;;;0.40;0.40;;;16.90;72.50;;;;;;5008394;28;20108;-80
2023/03/23 04:43:52;;;;;;;0.50;0.50;;;16.90;72.50;;;;;;5007649;28;20085;-79
2023/03/23 04:46:19;;;;;;;0.50;0.35;;;16.90;72.50;;;;;;5023470;28;20038;-79
2023/03/23 04:48:44;;;;;;;0.57;0.50;;;16.90;72.60;;;;;;5007496;28;20474;-79
2023/03/23 04:51:12;;;;;;;0.40;0.40;;;16.90;72.50;;;;;;5006365;28;20519;-80
2023/03/23 04:53:37;;;;;;;0.40;0.40;;;16.90;72.50;;;;;;5006995;28;20026;-79
2023/03/23 04:56:03;;;;;;;0.68;0.50;;;16.90;72.50;;;;;;5008018;28;20056;-80
2023/03/23 04:58:29;;;;;;;0.30;0.30;;;16.90;72.60;;;;;;5007716;28;20666;-80
2023/03/23 05:00:55;;;;;;;0.40;0.40;;;16.80;72.50;;;;;;5006919;28;20033;-80
2023/03/23 05:03:21;;;;;;;0.32;0.25;;;16.90;72.60;;;;;;5005055;28;20042;-79
2023/03/23 05:05:51;;;;;;;0.40;0.30;;;16.90;72.60;;;;;;5009492;28;20040;-79
2023/03/23 05:08:20;;;;;;;0.40;0.30;;;16.90;72.70;;;;;;5005648;28;20050;-80
2023/03/23 05:10:56;;;;;;;0.40;0.30;;;16.80;72.60;;;;;;5014374;28;20034;-80
2023/03/23 05:13:21;;;;;;;0.63;0.40;;;16.90;72.70;;;;;;5008252;28;20037;-80
2023/03/23 05:15:47;;;;;;;0.43;0.30;;;16.90;72.60;;;;;;5006054;28;20826;-79
2023/03/23 05:18:13;;;;;;;0.65;0.35;;;16.80;72.50;;;;;;5009290;28;20034;-80
2023/03/23 05:20:39;;;;;;;0.50;0.30;;;16.80;72.60;;;;;;5009840;28;20030;-80
2023/03/23 05:23:05;;;;;;;0.65;0.60;;;16.80;72.60;;;;;;5008847;28;20065;-79
2023/03/23 05:25:32;;;;;;;0.68;0.40;;;16.80;72.60;;;;;;5006927;28;20530;-79
2023/03/23 05:27:58;;;;;;;0.40;0.40;;;16.90;72.50;;;;;;5006125;28;20073;-79
2023/03/23 05:30:24;;;;;;;0.77;0.40;;;16.90;72.60;;;;;;5007549;28;20038;-80
2023/03/23 05:32:52;;;;;;;0.50;0.35;;;16.80;72.60;;;;;;5005659;28;20515;-79
2023/03/23 05:35:18;;;;;;;0.30;0.30;;;16.80;72.60;;;;;;5004851;28;20050;-80
2023/03/23 05:37:44;;;;;;;0.50;0.47;;;16.90;72.50;;;;;;5007069;28;20042;-79
2023/03/23 05:40:12;;;;;;;0.70;0.52;;;16.80;72.50;;;;;;5004504;28;20527;-80
2023/03/23 05:42:39;;;;;;;0.35;0.35;;;16.80;72.40;;;;;;5008010;28;20048;-80
2023/03/23 05:45:05;;;;;;;0.50;0.50;;;16.80;72.50;;;;;;5004613;28;20038;-80
2023/03/23 05:47:31;;;;;;;0.40;0.40;;;16.80;72.50;;;;;;5006190;28;20133;-80
2023/03/23 05:49:57;;;;;;;0.88;0.55;;;16.80;72.60;;;;;;5004088;28;20581;-80
2023/03/23 05:52:24;;;;;;;0.65;0.65;;;16.80;72.60;;;;;;5007665;28;20132;-80
2023/03/23 05:54:50;;;;;;;0.50;0.50;;;16.80;72.60;;;;;;5005963;28;20184;-80
2023/03/23 05:57:15;;;;;;;0.50;0.50;;;16.80;72.60;;;;;;5007275;28;20141;-81
2023/03/23 05:59:41;;;;;;;0.55;0.40;;;16.80;72.80;;;;;;5005681;28;20045;-80
2023/03/23 06:02:07;;;;;;;1.85;0.40;;;16.90;72.60;;;;;;5001883;28;20511;-81
2023/03/23 06:04:33;;;;;;;0.70;0.70;;;16.90;72.60;;;;;;5003940;28;20060;-82
2023/03/23 06:07:00;;;;;;;1.75;0.40;;;16.90;72.40;;;;;;5008089;28;20038;-83
2023/03/23 06:09:26;;;;;;;0.70;0.52;;;17.00;72.50;;;;;;5005661;28;20157;-83
2023/03/23 06:11:51;;;;;;;0.40;0.40;;;17.00;72.30;;;;;;5005578;28;20121;-80
2023/03/23 06:14:17;;;;;;;1.15;0.50;;;16.90;72.10;;;;;;5004556;28;20173;-84
2023/03/23 06:16:43;;;;;;;0.80;0.80;;;17.00;72.50;;;;;;5000132;28;20054;-83
2023/03/23 06:19:08;;;;;;;0.55;0.55;;;16.90;72.60;;;;;;5000042;28;20059;-85
2023/03/23 06:21:34;;;;;;;0.63;0.40;;;16.90;72.60;;;;;;4998732;28;20049;-84
2023/03/23 06:24:00;;;;;;;1.10;0.63;;;16.90;72.30;;;;;;4999591;28;20054;-88
2023/03/23 06:26:31;;;;;;;0.77;0.65;;;16.90;72.60;;;;;;5003757;28;20041;-87
2023/03/23 06:28:57;;;;;;;1.20;0.80;;;16.90;72.50;;;;;;5003296;28;20624;-87
2023/03/23 06:31:23;;;;;;;1.08;0.57;;;16.90;72.80;;;;;;4661537;28;9999624;-90
2023/03/23 06:33:48;;;;;;;0.88;0.57;;;17.00;72.40;;;;;;4986406;28;20045;-87
2023/03/23 06:36:14;;;;;;;0.98;0.70;;;17.00;73.00;;;;;;5002332;28;20058;-86
2023/03/23 06:38:40;;;;;;;0.70;0.43;;;17.00;72.80;;;;;;5003468;28;20048;-86
2023/03/23 06:41:05;;;;;;;1.08;0.63;;;17.00;72.80;;;;;;4997293;28;20431;-83
2023/03/23 06:43:31;;;;;;;0.95;0.60;;;17.00;72.80;;;;;;5002519;28;20088;-84
2023/03/23 06:46:00;;;;;;;0.75;0.57;;;17.00;72.80;;;;;;5000939;28;20049;-87
2023/03/23 06:48:26;;;;;;;0.68;0.40;;;17.00;72.90;;;;;;5006422;28;20530;-87
2023/03/23 06:50:52;;;;;;;0.88;0.68;;;16.90;72.60;;;;;;5001605;28;20096;-87
2023/03/23 06:53:20;;;;;;;0.65;0.45;;;17.00;73.40;;;;;;5002656;28;20427;-87
2023/03/23 06:55:45;;;;;;;0.50;0.38;;;17.00;73.20;;;;;;5002893;28;20050;-85
2023/03/23 06:58:11;;;;;;;0.50;0.50;;;17.00;73.20;;;;;;5003585;28;20396;-88
2023/03/23 07:00:37;;;;;;;0.65;0.50;;;17.00;73.30;;;;;;5003784;28;20068;-87
2023/03/23 07:03:03;;;;;;;0.60;0.30;;;17.00;73.10;;;;;;5005175;28;20167;-85
2023/03/23 07:05:30;;;;;;;0.88;0.50;;;17.00;73.00;;;;;;5004544;28;20499;-86
2023/03/23 07:07:55;;;;;;;0.95;0.85;;;17.00;72.80;;;;;;4998493;28;20075;-86
2023/03/23 07:10:21;;;;;;;0.52;0.50;;;17.00;72.90;;;;;;5001364;28;20041;-86
2023/03/23 07:12:46;;;;;;;0.50;0.50;;;17.00;72.80;;;;;;4986213;28;20048;-86
2023/03/23 07:15:12;;;;;;;0.98;0.60;;;17.00;72.60;;;;;;5000494;28;20547;-83
2023/03/23 07:17:38;;;;;;;1.00;0.60;;;17.00;72.80;;;;;;4985530;28;20053;-84
2023/03/23 07:20:04;;;;;;;0.65;0.60;;;17.00;73.50;;;;;;4996539;28;20542;-87
2023/03/23 07:22:30;;;;;;;0.95;0.50;;;17.00;73.50;;;;;;5009764;28;20582;-86
2023/03/23 07:24:56;;;;;;;1.88;0.38;;;17.10;73.40;;;;;;5002606;28;20096;-83
2023/03/23 07:27:22;;;;;;;0.50;0.40;;;17.10;73.30;;;;;;4999639;28;20112;-83
2023/03/23 07:29:47;;;;;;;0.95;0.50;;;17.10;73.60;;;;;;5001056;28;20041;-84
2023/03/23 07:32:13;;;;;;;0.30;0.30;;;17.10;73.30;;;;;;5002393;28;20046;-85
2023/03/23 07:34:39;;;;;;;2.97;0.90;;;17.10;74.40;;;;;;4998790;28;20048;-82
2023/03/23 07:37:04;;;;;;;0.65;0.40;;;17.10;74.00;;;;;;5009372;28;20172;-83
2023/03/23 07:39:30;;;;;;;0.65;0.60;;;17.10;74.10;;;;;;4997855;28;20034;-82
2023/03/23 07:41:55;;;;;;;0.90;0.60;;;17.10;73.80;;;;;;4995856;28;20048;-82
2023/03/23 07:44:22;;;;;;;1.08;0.77;;;17.10;73.50;;;;;;4997161;28;20104;-83
2023/03/23 07:46:48;;;;;;;0.52;0.47;;;17.10;73.50;;;;;;5012605;28;20793;-83
2023/03/23 07:49:13;;;;;;;1.35;0.70;;;17.10;73.90;;;;;;4999841;28;20046;-82
2023/03/23 07:51:39;;;;;;;1.25;0.82;;;17.10;74.20;;;;;;5003551;28;20034;-82
2023/03/23 07:54:07;;;;;;;0.93;0.70;;;17.10;73.90;;;;;;5002147;28;20042;-81
2023/03/23 07:56:33;;;;;;;1.58;0.70;;;17.10;73.90;;;;;;5005649;28;20092;-82
2023/03/23 07:58:59;;;;;;;1.13;0.60;;;17.20;74.00;;;;;;4998940;28;20048;-81
2023/03/23 08:01:24;;;;;;;1.15;0.60;;;17.10;73.80;;;;;;5018409;28;20046;-82
2023/03/23 08:03:51;;;;;;;2.35;0.50;;;17.10;73.50;;;;;;5022824;28;20511;-81
2023/03/23 08:06:17;;;;;;;1.25;0.70;;;17.10;73.50;;;;;;5005933;28;20058;-81
2023/03/23 08:08:43;;;;;;;1.83;0.70;;;17.10;73.60;;;;;;5010934;28;20045;-81
2023/03/23 08:11:08;;;;;;;1.23;0.50;;;17.10;73.70;;;;;;5008337;28;20046;-81
2023/03/23 08:13:35;;;;;;;1.75;0.80;;;17.10;73.80;;;;;;5007773;28;20112;-82
2023/03/23 08:16:03;;;;;;;1.08;0.43;;;17.10;73.80;;;;;;5008089;28;20053;-81
2023/03/23 08:18:30;;;;;;;1.52;0.70;;;17.10;73.80;;;;;;5007258;28;20058;-82
2023/03/23 08:20:55;;;;;;;1.50;0.68;;;17.10;74.00;;;;;;5009074;28;20046;-81
2023/03/23 08:23:21;;;;;;;1.02;0.70;;;17.10;74.00;;;;;;5007036;28;20113;-81
2023/03/23 08:25:47;;;;;;;2.22;0.70;;;17.10;74.00;;;;;;5005158;28;20042;-81
2023/03/23 08:28:13;;;;;;;1.20;0.55;;;17.10;74.30;;;;;;5004246;28;20042;-80
2023/03/23 08:30:39;;;;;;;1.17;0.57;;;17.10;74.20;;;;;;5005882;28;20052;-79
2023/03/23 08:33:05;;;;;;;1.98;0.93;;;17.10;73.90;;;;;;5007322;28;20634;-80
2023/03/23 08:35:31;;;;;;;1.60;0.70;;;17.10;74.20;;;;;;5008488;28;20038;-80
2023/03/23 08:37:57;;;;;;;0.90;0.77;;;17.10;74.20;;;;;;5005120;28;20030;-80
2023/03/23 08:40:23;;;;;;;0.82;0.75;;;17.10;73.80;;;;;;5011859;28;20678;-80
2023/03/23 08:42:49;;;;;;;1.10;0.70;;;17.10;73.90;;;;;;5008557;28;20724;-80
2023/03/23 08:45:17;;;;;;;1.50;0.73;;;17.10;74.30;;;;;;5004583;28;20077;-79
2023/03/23 08:47:43;;;;;;;0.75;0.75;;;17.10;73.80;;;;;;5009030;28;20128;-79
2023/03/23 08:50:12;;;;;;;2.55;0.70;;;17.10;73.60;;;;;;5007914;28;20065;-79
2023/03/23 08:52:37;;;;;;;1.42;0.60;;;17.10;73.80;;;;;;5004705;28;20116;-79
2023/03/23 08:55:04;;;;;;;1.20;0.77;;;17.10;73.50;;;;;;5004070;28;20120;-79
2023/03/23 08:57:30;;;;;;;1.10;0.57;;;17.10;73.50;;;;;;5022573;28;20048;-80
2023/03/23 08:59:59;;;;;;;1.35;0.68;;;17.10;73.70;;;;;;5010438;28;20041;-77
2023/03/23 09:02:26;;;;;;;1.38;1.00;;;17.10;73.50;;;;;;5005783;28;20132;-79
2023/03/23 09:04:52;;;;;;;2.05;0.80;;;17.10;73.70;;;;;;5004628;28;20061;-79
2023/03/23 09:07:18;;;;;;;1.40;0.63;;;17.10;73.90;;;;;;5006670;28;20422;-79
2023/03/23 09:09:44;;;;;;;1.58;0.80;;;17.10;73.80;;;;;;5015754;28;20044;-79
2023/03/23 09:12:10;;;;;;;1.50;0.88;;;17.10;74.60;;;;;;5006515;28;20041;-79
2023/03/23 09:14:37;;;;;;;1.25;0.90;;;17.10;73.90;;;;;;5004896;28;20164;-79
2023/03/23 09:17:03;;;;;;;1.08;0.98;;;17.10;73.50;;;;;;5008116;28;20046;-79
2023/03/23 09:19:29;;;;;;;0.90;0.80;;;17.10;74.10;;;;;;5009824;28;20041;-79
2023/03/23 09:21:55;;;;;;;0.80;0.60;;;17.10;73.80;;;;;;5007882;28;20056;-79
2023/03/23 09:24:20;;;;;;;2.22;1.00;;;17.10;73.60;;;;;;5006698;28;20077;-79
2023/03/23 09:26:46;;;;;;;1.13;0.75;;;17.10;74.00;;;;;;5007041;28;20057;-79
2023/03/23 09:29:12;;;;;;;1.02;0.90;;;17.10;73.90;;;;;;5007072;28;20044;-79
2023/03/23 09:31:39;;;;;;;0.80;0.70;;;17.10;73.80;;;;;;5010572;28;20523;-79
2023/03/23 09:34:06;;;;;;;1.25;0.82;;;17.10;73.90;;;;;;5023235;28;20046;-79
2023/03/23 09:36:31;;;;;;;1.15;1.05;;;17.10;73.80;;;;;;5005975;28;20100;-79
2023/03/23 09:38:58;;;;;;;1.55;1.00;;;17.10;73.80;;;;;;5006436;28;20046;-80
2023/03/23 09:41:44;;;;;;;0.88;0.80;;;17.20;73.90;;;;;;5008788;28;20136;-79
2023/03/23 09:44:28;;;;;;;1.10;0.70;;;17.20;73.60;;;;;;5006760;28;20045;-79
2023/03/23 09:46:54;;;;;;;;;;;17.20;73.50;;;;;;5009173;28;20038;-79
2023/03/23 09:49:28;;;;;;;1.75;0.77;;;17.20;73.40;;;;;;5006043;28;19979;-79
2023/03/23 09:52:15;;;;;;;1.75;1.20;;;17.30;73.20;;;;;;5006552;28;20124;-79
2023/03/23 09:54:42;;;;;;;0.55;0.52;;;17.30;72.90;;;;;;5007278;28;20046;-79
2023/03/23 09:57:50;;;;;;;1.10;0.60;;;17.30;73.00;;;;;;5007907;28;20080;-78
2023/03/23 10:00:21;;;;;;;1.15;0.80;;;17.30;73.10;;;;;;5007911;28;20053;-78
2023/03/23 10:02:50;;;;;;;0.85;0.70;;;17.30;73.20;;;;;;5007285;28;20242;-79
2023/03/23 10:05:32;;;;;;;1.10;0.80;;;17.30;72.90;;;;;;5007602;28;20067;-79
2023/03/23 10:07:57;;;;;;;1.45;0.90;;;17.30;73.00;;;;;;5007947;28;20466;-79
2023/03/23 10:10:39;;;;;;;2.25;0.90;;;17.30;72.80;;;;;;5006052;28;20534;-79
2023/03/23 10:13:12;;;;;;;1.38;0.70;;;17.30;72.80;;;;;;5006031;28;20046;-79
2023/03/23 10:15:38;;;;;;;0.63;0.52;;;17.30;72.90;;;;;;5005796;28;20089;-80
2023/03/23 10:18:12;;;;;;;1.23;0.80;;;17.30;72.80;;;;;;4989460;28;20525;-79
2023/03/23 10:21:04;;;;;;;0.70;0.60;;;17.30;72.70;;;;;;5008296;28;20084;-80
2023/03/23 10:23:51;;;;;;;1.17;0.60;;;17.30;72.60;;;;;;5005024;28;20129;-80
2023/03/23 10:26:42;;;;;;;0.80;0.57;;;17.30;72.50;;;;;;5016106;28;20034;-79
2023/03/23 10:29:53;;;;;;;0.80;0.70;;;17.30;72.50;;;;;;5005660;28;20038;-78
2023/03/23 10:32:21;;;;;;;1.10;0.98;;;17.30;72.50;;;;;;5008448;28;20129;-80
2023/03/23 10:34:52;;;;;;;0.95;0.85;;;17.30;72.30;;;;;;5008165;28;20037;-80
2023/03/23 10:37:30;;;;;;;1.00;0.90;;;17.30;72.10;;;;;;5007267;28;20065;-79
2023/03/23 10:39:56;;;;;;;1.00;0.70;;;17.40;72.20;;;;;;5008499;28;20056;-80
2023/03/23 10:42:26;;;;;;;0.80;0.80;;;17.40;72.30;;;;;;5005563;28;20065;-80
2023/03/23 10:44:52;;;;;;;0.93;0.70;;;17.40;72.30;;;;;;5006830;28;20042;-80
2023/03/23 10:47:18;;;;;;;2.28;0.77;;;17.40;72.40;;;;;;5007136;28;20061;-79
2023/03/23 10:50:04;;;;;;;1.60;0.63;;;17.40;72.40;;;;;;5005653;28;20058;-80
2023/03/23 10:52:40;;;;;;;0.57;0.57;;;17.30;72.50;;;;;;5003861;28;20084;-79
2023/03/23 10:55:15;;;;;;;3.05;0.57;;;17.30;72.40;;;;;;5003857;28;20045;-79
2023/03/23 10:58:02;;;;;;;0.77;0.60;;;17.30;73.20;;;;;;5004001;28;20042;-79
2023/03/23 11:00:28;;;;;;;1.27;0.70;;;17.30;72.10;;;;;;5003198;28;20041;-78
2023/03/23 11:03:06;;;;;;;1.75;0.60;;;17.30;72.50;;;;;;5005680;28;20069;-80
2023/03/23 11:05:42;;;;;;;1.85;0.95;;;17.30;72.40;;;;;;5012548;28;20077;-80
2023/03/23 11:08:16;;;;;;;2.58;0.77;;;17.30;72.40;;;;;;5006657;28;20129;-80
2023/03/23 11:10:50;;;;;;;0.82;0.50;;;17.30;72.40;;;;;;5008561;28;20038;-79
2023/03/23 11:13:16;;;;;;;0.73;0.60;;;17.30;72.20;;;;;;5018695;28;20065;-79
2023/03/23 11:15:44;;;;;;;0.90;0.65;;;17.30;72.30;;;;;;5003765;28;20034;-78
2023/03/23 11:18:34;;;;;;;2.58;0.70;;;17.30;72.40;;;;;;5003582;28;20050;-84
2023/03/23 11:21:00;;;;;;;14.48;7.15;;;17.30;72.80;;;;;;5008509;28;20519;-79
2023/03/23 11:23:28;;;;;;;19.92;9.73;;;17.20;73.10;;;;;;5004847;28;20060;-80
2023/03/23 11:26:09;;;;;;;10.90;6.45;;;17.20;73.20;;;;;;4984935;28;20089;-79
2023/03/23 11:28:42;;;;;;;7.20;6.05;;;17.10;73.50;;;;;;5003721;28;20117;-80
2023/03/23 11:31:08;;;;;;;6.93;5.10;;;17.10;73.60;;;;;;5005322;28;20040;-81
2023/03/23 11:33:47;;;;;;;6.28;4.50;;;17.10;73.50;;;;;;5020383;28;20049;-80
2023/03/23 11:36:13;;;;;;;8.07;3.95;;;17.20;73.40;;;;;;4989154;28;20046;-79
2023/03/23 11:38:39;;;;;;;7.57;3.95;;;17.10;73.10;;;;;;4976752;28;20120;-82
2023/03/23 11:41:10;;;;;;;5.70;3.60;;;17.10;73.40;;;;;;4988125;28;20125;-79
2023/03/23 11:43:39;;;;;;;6.78;3.45;;;17.10;73.90;;;;;;5006154;28;20061;-79
2023/03/23 11:46:22;;;;;;;5.03;3.30;;;17.10;73.50;;;;;;5022812;28;20093;-79
2023/03/23 11:48:53;;;;;;;6.37;3.47;;;17.20;73.50;;;;;;4657441;28;10000522;-80
2023/03/23 11:51:55;;;;;;;6.53;2.92;;;17.20;73.50;;;;;;5008196;28;20054;-80
2023/03/23 11:54:34;;;;;;;7.53;3.22;;;17.30;74.70;;;;;;4670889;28;10000266;-79
2023/03/23 11:56:59;;;;;;;5.15;2.70;;;17.30;75.20;;;;;;5002450;28;20396;-79
2023/03/23 11:59:36;;;;;;;6.05;3.28;;;17.40;75.30;;;;;;4990102;28;20049;-79
2023/03/23 12:02:05;;;;;;;5.70;2.78;;;17.40;75.30;;;;;;5006332;28;20059;-78
2023/03/23 12:04:47;;;;;;;3.53;2.83;;;17.50;75.70;;;;;;5003143;28;20049;-78
2023/03/23 12:07:25;;;;;;;3.15;2.45;;;17.50;75.50;;;;;;5006452;28;20049;-78
2023/03/23 12:10:19;;;;;;;5.18;2.83;;;17.50;75.50;;;;;;5017586;28;20052;-82
2023/03/23 12:13:39;;;;;;;3.58;2.55;;;17.50;75.60;;;;;;4989933;28;20046;-82
2023/03/23 12:16:29;;;;;;;4.03;2.38;;;17.60;76.70;;;;;;5023488;28;20045;-84
2023/03/23 12:19:17;;;;;;;4.05;2.40;;;17.60;76.10;;;;;;5022381;28;20045;-81
2023/03/23 12:21:50;;;;;;;3.53;2.60;;;17.60;76.30;;;;;;5006593;28;20439;-81
2023/03/23 12:24:27;;;;;;;4.47;2.65;;;17.60;75.90;;;;;;5020964;28;20099;-82
2023/03/23 12:27:10;;;;;;;3.33;2.30;;;17.60;75.40;;;;;;5005578;28;20045;-81
2023/03/23 12:30:00;;;;;;;4.75;2.58;;;17.60;75.30;;;;;;5020399;28;20564;-80
2023/03/23 12:32:39;;;;;;;5.10;2.70;;;17.70;75.10;;;;;;5022068;28;20111;-82
2023/03/23 12:35:24;;;;;;;3.85;2.90;;;17.70;74.90;;;;;;4656595;28;9999753;-79
2023/03/23 12:38:02;;;;;;;3.28;2.28;;;17.70;74.70;;;;;;4991309;28;20056;-82
2023/03/23 12:40:36;;;;;;;2.63;2.33;;;17.70;74.50;;;;;;5032197;28;20106;-84
2023/03/23 12:43:26;;;;;;;3.75;2.25;;;17.70;74.50;;;;;;5011660;28;20122;-83
2023/03/23 12:46:21;;;;;;;7.85;4.20;;;17.70;74.50;;;;;;5020524;28;20598;-83
2023/03/23 12:48:53;;;;;;;10.27;4.88;;;17.70;74.40;;;;;;5005252;28;20092;-82
2023/03/23 12:51:32;;;;;;;6.45;4.80;;;17.70;74.30;;;;;;5007466;28;20042;-82
2023/03/23 12:54:01;;;;;;;9.15;4.20;;;17.70;74.20;;;;;;5003733;28;20590;-83
2023/03/23 12:56:31;;;;;;;6.35;4.00;;;17.80;73.90;;;;;;5009857;28;20069;-82
2023/03/23 12:59:22;;;;;;;7.28;3.70;;;17.80;73.50;;;;;;5005749;28;20042;-83
2023/03/23 13:01:51;;;;;;;4.40;3.30;;;17.80;73.70;;;;;;4990970;28;20050;-82
2023/03/23 13:04:38;;;;;;;7.82;3.40;;;17.70;73.40;;;;;;4991439;28;20056;-82
2023/03/23 13:07:05;;;;;;;3.45;2.70;;;17.70;73.40;;;;;;5005876;28;20561;-83
2023/03/23 13:09:44;;;;;;;5.72;2.78;;;17.80;73.30;;;;;;5006676;28;20046;-82